Time;durP1;ratioP1;P1;durP2;ratioP2;P2;SDS_P1;SDS_P2;PMS_P1;PMS_P2;Temp;Humidity;BMP_temperature;BMP_pressure;BME280_temperature;BME280_humidity;BME280_pressure;Samples;Min_cycle;Max_cycle;Signal;HPM_P1;HPM_P2
2023/09/05 00:00:10;;;;;;;7.10;3.45;;;15.20;99.90;;;;;;5023416;28;20026;-85
2023/09/05 00:02:40;;;;;;;5.80;3.28;;;15.20;99.90;;;;;;5023836;28;20067;-85
2023/09/05 00:05:11;;;;;;;6.13;3.50;;;15.20;99.90;;;;;;5022997;28;20461;-85
2023/09/05 00:07:37;;;;;;;6.18;3.60;;;15.10;99.90;;;;;;5022947;28;20108;-86
2023/09/05 00:10:13;;;;;;;6.13;3.10;;;15.10;99.90;;;;;;5022844;28;20044;-85
2023/09/05 00:12:43;;;;;;;7.40;3.20;;;15.00;99.90;;;;;;5023844;28;20022;-85
2023/09/05 00:15:11;;;;;;;5.60;3.33;;;15.00;99.90;;;;;;5023243;28;20026;-85
2023/09/05 00:17:37;;;;;;;7.82;3.20;;;15.00;99.90;;;;;;5023518;28;20022;-85
2023/09/05 00:20:04;;;;;;;6.68;3.13;;;14.90;99.90;;;;;;5022973;28;20029;-85
2023/09/05 00:22:30;;;;;;;7.50;3.30;;;14.90;99.90;;;;;;5024896;28;20109;-85
2023/09/05 00:24:55;;;;;;;6.68;3.55;;;14.90;99.90;;;;;;5023009;28;20026;-84
2023/09/05 00:27:21;;;;;;;6.85;3.50;;;14.90;99.90;;;;;;5022484;28;20033;-85
2023/09/05 00:29:46;;;;;;;6.13;3.63;;;14.80;99.90;;;;;;5022391;28;22013;-85
2023/09/05 00:32:13;;;;;;;4.88;3.30;;;14.80;99.90;;;;;;5023410;28;20037;-85
2023/09/05 00:34:39;;;;;;;5.25;3.17;;;14.80;99.90;;;;;;5023078;28;20064;-85
2023/09/05 00:37:06;;;;;;;4.45;2.85;;;14.70;99.90;;;;;;5023086;28;20108;-85
2023/09/05 00:39:33;;;;;;;4.95;3.17;;;14.70;99.90;;;;;;5026371;28;20032;-85
2023/09/05 00:42:05;;;;;;;4.65;3.35;;;14.60;99.90;;;;;;5027029;28;20091;-85
2023/09/05 00:44:31;;;;;;;7.18;3.67;;;14.60;99.90;;;;;;5027798;28;20053;-85
2023/09/05 00:47:00;;;;;;;8.35;3.83;;;14.60;99.90;;;;;;5026592;28;20887;-85
2023/09/05 00:49:27;;;;;;;5.05;3.25;;;14.60;99.90;;;;;;5025826;28;20116;-85
2023/09/05 00:51:55;;;;;;;4.97;2.88;;;14.50;99.90;;;;;;5026538;28;20052;-85
2023/09/05 00:54:21;;;;;;;4.40;2.95;;;14.50;99.90;;;;;;5026560;28;20120;-85
2023/09/05 00:56:48;;;;;;;4.80;3.40;;;14.50;99.90;;;;;;5026378;28;20025;-85
2023/09/05 00:59:14;;;;;;;4.63;3.03;;;14.50;99.90;;;;;;5025759;28;20756;-85
2023/09/05 01:01:40;;;;;;;5.82;3.70;;;14.50;99.90;;;;;;5026100;28;20037;-85
2023/09/05 01:04:06;;;;;;;6.63;3.30;;;14.40;99.90;;;;;;5026363;28;20505;-85
2023/09/05 01:06:37;;;;;;;6.80;3.50;;;14.40;99.90;;;;;;5026082;28;20757;-85
2023/09/05 01:09:16;;;;;;;5.95;3.40;;;14.40;99.90;;;;;;5026046;28;20116;-85
2023/09/05 01:11:42;;;;;;;6.00;4.18;;;14.30;99.90;;;;;;5025979;28;20412;-85
2023/09/05 01:14:08;;;;;;;5.32;3.65;;;14.20;99.90;;;;;;5025996;28;20095;-85
2023/09/05 01:16:33;;;;;;;5.88;3.35;;;14.20;99.90;;;;;;5025655;28;20197;-85
2023/09/05 01:19:01;;;;;;;6.03;3.78;;;14.10;99.90;;;;;;5025912;28;20211;-85
2023/09/05 01:21:32;;;;;;;6.13;4.22;;;14.10;99.90;;;;;;5026247;28;20163;-85
2023/09/05 01:24:17;;;;;;;6.00;4.10;;;14.10;99.90;;;;;;5026034;28;20032;-85
2023/09/05 01:26:43;;;;;;;8.55;3.55;;;14.00;99.90;;;;;;5026440;28;20026;-85
2023/09/05 01:29:11;;;;;;;7.82;3.83;;;14.00;99.90;;;;;;5025615;28;20145;-84
2023/09/05 01:31:37;;;;;;;6.07;3.65;;;13.90;99.90;;;;;;5025498;28;20091;-85
2023/09/05 01:34:03;;;;;;;6.88;3.92;;;13.90;99.90;;;;;;5026082;28;20033;-85
2023/09/05 01:36:28;;;;;;;6.70;4.10;;;13.90;99.90;;;;;;5025593;28;20489;-85
2023/09/05 01:38:55;;;;;;;5.38;3.60;;;13.90;99.90;;;;;;5025446;28;20030;-85
2023/09/05 01:41:20;;;;;;;6.78;3.92;;;13.90;99.90;;;;;;5025378;28;20033;-85
2023/09/05 01:43:46;;;;;;;10.60;4.05;;;13.80;99.90;;;;;;5025844;28;20024;-85
2023/09/05 01:46:11;;;;;;;8.60;3.92;;;13.80;99.90;;;;;;5025578;28;20057;-85
2023/09/05 01:48:37;;;;;;;6.25;4.07;;;13.80;99.90;;;;;;5024105;28;20161;-85
2023/09/05 01:51:03;;;;;;;7.28;3.60;;;13.80;99.90;;;;;;5024947;28;20064;-85
2023/09/05 01:53:29;;;;;;;6.22;4.25;;;13.70;99.90;;;;;;5025266;28;20504;-85
2023/09/05 01:55:55;;;;;;;5.75;3.78;;;13.70;99.90;;;;;;5025054;28;20033;-85
2023/09/05 01:58:21;;;;;;;6.47;3.95;;;13.60;99.90;;;;;;5026218;28;20107;-85
2023/09/05 02:00:46;;;;;;;6.57;3.70;;;13.60;99.90;;;;;;5025141;28;20100;-86
2023/09/05 02:03:12;;;;;;;7.13;4.38;;;13.60;99.90;;;;;;5025291;28;21410;-85
2023/09/05 02:05:37;;;;;;;6.88;3.70;;;13.50;99.90;;;;;;5025072;28;20373;-85
2023/09/05 02:08:04;;;;;;;7.68;3.35;;;13.50;99.90;;;;;;5024581;28;20527;-85
2023/09/05 02:10:30;;;;;;;5.57;3.88;;;13.50;99.90;;;;;;5024646;28;20033;-85
2023/09/05 02:12:56;;;;;;;6.35;3.60;;;13.40;99.90;;;;;;5025155;28;20503;-85
2023/09/05 02:15:22;;;;;;;6.43;3.92;;;13.40;99.90;;;;;;5023896;28;20033;-85
2023/09/05 02:17:47;;;;;;;6.63;3.70;;;13.30;99.90;;;;;;5024073;28;20152;-85
2023/09/05 02:20:13;;;;;;;6.65;4.10;;;13.30;99.90;;;;;;5024479;28;20064;-85
2023/09/05 02:22:42;;;;;;;5.82;3.40;;;13.30;99.90;;;;;;5024409;28;20025;-85
2023/09/05 02:25:07;;;;;;;5.60;3.70;;;13.20;99.90;;;;;;5023836;28;20030;-84
2023/09/05 02:27:33;;;;;;;6.95;3.92;;;13.20;99.90;;;;;;5023838;28;20025;-85
2023/09/05 02:30:01;;;;;;;7.22;4.13;;;13.10;99.90;;;;;;5024008;28;20052;-85
2023/09/05 02:32:30;;;;;;;5.43;3.85;;;13.10;99.90;;;;;;5024496;28;20514;-85
2023/09/05 02:34:57;;;;;;;8.20;3.92;;;13.10;99.90;;;;;;5024182;28;20052;-86
2023/09/05 02:37:22;;;;;;;8.25;4.28;;;13.10;99.90;;;;;;5023924;28;20496;-85
2023/09/05 02:39:48;;;;;;;6.53;3.95;;;13.10;99.90;;;;;;5024346;28;20036;-85
2023/09/05 02:42:13;;;;;;;6.03;3.80;;;13.00;99.90;;;;;;5024121;28;20369;-85
2023/09/05 02:44:39;;;;;;;6.65;4.30;;;13.00;99.90;;;;;;5024242;28;20025;-86
2023/09/05 02:47:04;;;;;;;5.68;3.75;;;13.00;99.90;;;;;;5023264;28;20087;-85
2023/09/05 02:49:33;;;;;;;6.47;3.75;;;13.00;99.90;;;;;;5024021;28;20025;-85
2023/09/05 02:51:59;;;;;;;6.90;4.05;;;13.00;99.90;;;;;;5024306;28;20112;-85
2023/09/05 02:54:27;;;;;;;5.53;3.70;;;13.00;99.90;;;;;;5024148;28;20048;-85
2023/09/05 02:56:54;;;;;;;6.70;4.40;;;13.00;99.90;;;;;;5023701;28;20037;-85
2023/09/05 02:59:20;;;;;;;6.50;4.10;;;13.00;99.90;;;;;;5024090;28;20021;-85
2023/09/05 03:01:46;;;;;;;8.65;4.47;;;12.90;99.90;;;;;;5023565;28;20546;-85
2023/09/05 03:04:13;;;;;;;6.47;4.28;;;12.90;99.90;;;;;;5024234;28;20561;-85
2023/09/05 03:06:39;;;;;;;6.05;4.30;;;12.90;99.90;;;;;;5023673;28;20207;-85
2023/09/05 03:09:04;;;;;;;7.03;4.25;;;12.90;99.90;;;;;;5023505;28;20043;-85
2023/09/05 03:11:30;;;;;;;6.38;4.45;;;12.90;99.90;;;;;;5023966;28;20043;-85
2023/09/05 03:13:55;;;;;;;5.93;4.55;;;12.90;99.90;;;;;;5024185;28;20045;-85
2023/09/05 03:16:23;;;;;;;6.70;4.28;;;12.90;99.90;;;;;;5023714;28;20029;-85
2023/09/05 03:18:50;;;;;;;5.53;4.13;;;12.90;99.90;;;;;;5023090;28;20029;-85
2023/09/05 03:21:15;;;;;;;7.40;4.93;;;12.90;99.90;;;;;;5023589;28;20388;-85
2023/09/05 03:23:41;;;;;;;7.00;4.50;;;12.90;99.90;;;;;;5023705;28;20033;-85
2023/09/05 03:26:07;;;;;;;6.93;4.43;;;12.80;99.90;;;;;;5023338;28;20439;-85
2023/09/05 03:28:41;;;;;;;7.55;4.57;;;12.80;99.90;;;;;;5023818;28;20079;-85
2023/09/05 03:31:06;;;;;;;6.45;3.78;;;12.80;99.90;;;;;;5023534;28;20041;-85
2023/09/05 03:33:32;;;;;;;7.05;4.72;;;12.80;99.90;;;;;;5024129;28;20028;-85
2023/09/05 03:35:58;;;;;;;8.02;4.65;;;12.80;99.90;;;;;;5023690;28;20104;-85
2023/09/05 03:38:23;;;;;;;6.95;4.72;;;12.80;99.90;;;;;;5023145;28;20025;-85
2023/09/05 03:40:49;;;;;;;6.32;4.75;;;12.70;99.90;;;;;;5023228;28;20026;-85
2023/09/05 03:43:14;;;;;;;6.68;4.60;;;12.70;99.90;;;;;;5023718;28;20373;-85
2023/09/05 03:45:40;;;;;;;8.65;4.28;;;12.70;99.90;;;;;;5023773;28;20360;-85
2023/09/05 03:48:06;;;;;;;7.85;4.70;;;12.70;99.90;;;;;;5022460;28;20531;-85
2023/09/05 03:50:31;;;;;;;7.00;3.88;;;12.70;99.90;;;;;;5023117;28;20025;-84
2023/09/05 03:52:57;;;;;;;8.55;4.60;;;12.70;99.90;;;;;;5023190;28;20053;-85
2023/09/05 03:55:23;;;;;;;6.05;4.07;;;12.60;99.90;;;;;;5023555;28;20025;-85
2023/09/05 03:57:48;;;;;;;8.10;4.55;;;12.60;99.90;;;;;;5022792;28;20400;-85
2023/09/05 04:00:14;;;;;;;6.55;4.30;;;12.60;99.90;;;;;;5023515;28;20029;-85
2023/09/05 04:02:40;;;;;;;6.35;4.75;;;12.50;99.90;;;;;;5023777;28;20053;-85
2023/09/05 04:05:05;;;;;;;6.40;4.38;;;12.50;99.90;;;;;;5024200;28;20036;-85
2023/09/05 04:07:31;;;;;;;7.05;5.15;;;12.50;99.90;;;;;;5023214;28;20030;-85
2023/09/05 04:09:57;;;;;;;9.10;4.70;;;12.50;99.90;;;;;;5023836;28;20475;-85
2023/09/05 04:12:23;;;;;;;8.80;4.88;;;12.50;99.90;;;;;;5024774;28;20030;-84
2023/09/05 04:14:49;;;;;;;8.13;4.57;;;12.50;99.90;;;;;;5027468;28;20110;-85
2023/09/05 04:17:14;;;;;;;9.35;4.70;;;12.50;99.90;;;;;;5026458;28;20062;-84
2023/09/05 04:19:40;;;;;;;8.32;5.07;;;12.50;99.90;;;;;;5026683;28;20112;-85
2023/09/05 04:22:05;;;;;;;7.07;4.63;;;12.40;99.90;;;;;;5027191;28;20028;-85
2023/09/05 04:24:31;;;;;;;7.32;4.35;;;12.50;99.90;;;;;;5026731;28;20025;-84
2023/09/05 04:26:58;;;;;;;6.82;4.57;;;12.40;99.90;;;;;;5026556;28;20033;-85
2023/09/05 04:29:24;;;;;;;7.50;4.63;;;12.40;99.90;;;;;;5026431;28;20041;-85
2023/09/05 04:31:49;;;;;;;6.13;4.47;;;12.40;99.90;;;;;;5026920;28;20033;-85
2023/09/05 04:34:16;;;;;;;7.55;5.22;;;12.40;99.90;;;;;;5026503;28;20049;-85
2023/09/05 04:36:41;;;;;;;7.75;5.07;;;12.30;99.90;;;;;;5026467;28;20029;-85
2023/09/05 04:39:08;;;;;;;7.20;4.80;;;12.30;99.90;;;;;;5026561;28;20144;-85
2023/09/05 04:41:33;;;;;;;7.43;5.10;;;12.20;99.90;;;;;;5026610;28;20052;-85
2023/09/05 04:43:59;;;;;;;5.38;4.40;;;12.20;99.90;;;;;;5026964;28;20528;-85
2023/09/05 04:46:24;;;;;;;10.05;5.25;;;12.20;99.90;;;;;;5026268;28;20021;-85
2023/09/05 04:48:50;;;;;;;7.72;5.18;;;12.20;99.90;;;;;;5025286;28;20024;-85
2023/09/05 04:51:16;;;;;;;8.90;5.03;;;12.20;99.90;;;;;;5025843;28;20038;-85
2023/09/05 04:53:42;;;;;;;6.78;5.32;;;12.20;99.90;;;;;;5026495;28;20072;-85
2023/09/05 04:56:08;;;;;;;7.88;5.30;;;12.20;99.90;;;;;;5026265;28;20406;-85
2023/09/05 04:58:33;;;;;;;6.85;4.57;;;12.20;99.90;;;;;;5026165;28;20037;-85
2023/09/05 05:01:03;;;;;;;8.35;5.50;;;12.20;99.90;;;;;;5025673;28;20025;-85
2023/09/05 05:03:32;;;;;;;9.32;5.15;;;12.20;99.90;;;;;;5025947;28;20033;-85
2023/09/05 05:05:58;;;;;;;9.90;5.28;;;12.20;99.90;;;;;;5025593;28;20032;-85
2023/09/05 05:08:24;;;;;;;8.32;5.55;;;12.30;99.90;;;;;;5025548;28;20029;-85
2023/09/05 05:10:50;;;;;;;8.52;5.18;;;12.30;99.90;;;;;;5025639;28;20468;-85
2023/09/05 05:13:15;;;;;;;9.52;5.63;;;12.30;99.90;;;;;;5025865;28;20108;-85
2023/09/05 05:15:45;;;;;;;9.63;5.85;;;12.30;99.90;;;;;;5025670;28;20714;-85
2023/09/05 05:18:10;;;;;;;7.13;5.55;;;12.30;99.90;;;;;;5025065;28;20036;-84
2023/09/05 05:20:37;;;;;;;10.27;5.88;;;12.40;99.90;;;;;;5024832;28;20030;-85
2023/09/05 05:23:04;;;;;;;7.40;4.82;;;12.40;99.90;;;;;;5025362;28;20022;-85
2023/09/05 05:25:29;;;;;;;7.07;5.32;;;12.40;99.90;;;;;;5025400;28;20026;-85
2023/09/05 05:27:55;;;;;;;10.10;5.30;;;12.50;99.90;;;;;;5025001;28;20400;-85
2023/09/05 05:30:21;;;;;;;9.60;5.40;;;12.50;99.90;;;;;;5024284;28;20087;-85
2023/09/05 05:32:47;;;;;;;7.50;5.10;;;12.50;99.90;;;;;;5025074;28;20017;-85
2023/09/05 05:35:13;;;;;;;8.60;5.00;;;12.60;99.90;;;;;;5024684;28;20032;-84
2023/09/05 05:37:38;;;;;;;8.30;5.43;;;12.70;99.90;;;;;;5024781;28;20018;-85
2023/09/05 05:40:04;;;;;;;10.02;5.53;;;12.70;99.90;;;;;;5025120;28;20029;-84
2023/09/05 05:42:30;;;;;;;7.43;5.10;;;12.80;99.90;;;;;;5025266;28;20507;-85
2023/09/05 05:44:55;;;;;;;10.02;5.60;;;12.90;99.90;;;;;;5025058;28;20160;-85
2023/09/05 05:47:22;;;;;;;10.60;5.43;;;12.90;99.90;;;;;;5023560;28;20029;-85
2023/09/05 05:49:48;;;;;;;12.60;5.50;;;13.00;99.90;;;;;;5024733;28;20041;-85
2023/09/05 05:52:13;;;;;;;10.07;5.68;;;13.10;99.90;;;;;;5024901;28;20025;-85
2023/09/05 05:54:39;;;;;;;9.73;4.95;;;13.20;99.90;;;;;;5024924;28;20524;-85
2023/09/05 05:57:05;;;;;;;7.78;5.60;;;13.20;99.90;;;;;;5024023;28;20082;-86
2023/09/05 05:59:30;;;;;;;13.57;6.47;;;13.30;99.90;;;;;;5024099;28;20552;-85
2023/09/05 06:01:56;;;;;;;13.00;5.35;;;13.40;99.90;;;;;;5024205;28;20112;-86
2023/09/05 06:04:23;;;;;;;7.72;4.85;;;13.50;99.90;;;;;;5024682;28;20112;-86
2023/09/05 06:06:49;;;;;;;8.82;5.53;;;13.60;99.90;;;;;;5024479;28;20037;-85
2023/09/05 06:09:17;;;;;;;9.77;5.28;;;13.70;99.90;;;;;;5023608;28;20900;-85
2023/09/05 06:11:42;;;;;;;7.80;4.95;;;13.80;99.90;;;;;;5024459;28;20036;-85
2023/09/05 06:14:08;;;;;;;7.57;5.20;;;13.90;99.90;;;;;;5024472;28;20018;-85
2023/09/05 06:16:33;;;;;;;8.25;5.03;;;14.00;99.90;;;;;;5023736;28;20105;-85
2023/09/05 06:18:59;;;;;;;9.48;5.10;;;14.10;99.90;;;;;;5024235;28;20059;-84
2023/09/05 06:21:24;;;;;;;8.85;4.95;;;14.10;99.90;;;;;;5024021;28;20052;-85
2023/09/05 06:23:50;;;;;;;8.15;4.65;;;14.20;99.90;;;;;;5024462;28;20089;-85
2023/09/05 06:26:16;;;;;;;6.53;4.60;;;14.30;99.90;;;;;;5023247;28;21474;-85
2023/09/05 06:28:41;;;;;;;7.55;5.40;;;14.40;99.90;;;;;;5024023;28;20068;-85
2023/09/05 06:31:07;;;;;;;8.52;4.72;;;14.50;99.90;;;;;;5023637;28;20048;-86
2023/09/05 06:33:33;;;;;;;8.43;4.28;;;14.50;99.90;;;;;;5024015;28;20021;-85
2023/09/05 06:36:04;;;;;;;7.43;4.20;;;14.60;99.90;;;;;;5022889;28;20029;-85
2023/09/05 06:38:30;;;;;;;7.50;4.35;;;14.70;99.90;;;;;;5023793;28;20041;-85
2023/09/05 06:40:55;;;;;;;7.65;4.45;;;14.80;99.90;;;;;;5023601;28;20029;-85
2023/09/05 06:43:21;;;;;;;5.78;3.90;;;14.90;99.90;;;;;;5024198;28;20021;-86
2023/09/05 06:45:46;;;;;;;10.95;4.25;;;15.00;99.90;;;;;;5023813;28;20515;-86
2023/09/05 06:48:12;;;;;;;9.05;4.40;;;15.00;99.90;;;;;;5022709;28;20036;-85
2023/09/05 06:50:37;;;;;;;6.97;3.80;;;15.10;99.90;;;;;;5023290;28;20030;-85
2023/09/05 06:53:03;;;;;;;8.63;4.20;;;15.10;99.90;;;;;;5024279;28;20024;-85
2023/09/05 06:55:34;;;;;;;8.32;4.28;;;15.20;99.90;;;;;;5023090;28;20036;-86
2023/09/05 06:58:00;;;;;;;5.53;3.80;;;15.30;99.90;;;;;;5022710;28;20155;-86
2023/09/05 07:00:27;;;;;;;8.65;4.00;;;15.40;99.90;;;;;;5022748;28;20036;-85
2023/09/05 07:02:53;;;;;;;7.47;4.00;;;15.40;99.90;;;;;;5023630;28;20118;-85
2023/09/05 07:05:18;;;;;;;9.15;3.85;;;15.50;99.90;;;;;;5023465;28;20022;-86
2023/09/05 07:07:44;;;;;;;9.15;4.18;;;15.60;99.90;;;;;;5022907;28;20117;-86
2023/09/05 07:10:09;;;;;;;6.15;4.13;;;15.70;99.90;;;;;;5023104;28;21464;-84
2023/09/05 07:12:36;;;;;;;5.57;3.47;;;15.70;99.90;;;;;;5023428;28;20500;-85
2023/09/05 07:15:02;;;;;;;5.97;3.70;;;15.80;99.90;;;;;;5022811;28;20030;-85
2023/09/05 07:17:27;;;;;;;6.40;3.92;;;15.90;99.90;;;;;;5023125;28;20028;-86
2023/09/05 07:19:53;;;;;;;7.55;3.70;;;16.00;99.90;;;;;;5023354;28;20022;-86
2023/09/05 07:22:18;;;;;;;7.03;3.38;;;16.00;99.90;;;;;;5022889;28;20538;-87
2023/09/05 07:24:44;;;;;;;5.78;3.50;;;16.10;99.90;;;;;;5022431;28;20507;-85
2023/09/05 07:27:10;;;;;;;6.32;3.63;;;16.10;99.90;;;;;;5022729;28;20021;-85
2023/09/05 07:29:35;;;;;;;6.82;3.40;;;16.30;99.90;;;;;;5023399;28;20124;-85
2023/09/05 07:32:01;;;;;;;4.95;3.38;;;16.30;99.90;;;;;;5023613;28;20803;-85
2023/09/05 07:34:26;;;;;;;6.50;4.05;;;16.50;99.90;;;;;;5028446;28;20025;-86
2023/09/05 07:36:54;;;;;;;4.72;3.28;;;16.50;99.90;;;;;;5024234;28;20102;-85
2023/09/05 07:39:20;;;;;;;6.40;3.10;;;16.60;99.90;;;;;;5023173;28;20104;-85
2023/09/05 07:41:45;;;;;;;6.35;2.95;;;16.70;99.90;;;;;;5023168;28;20025;-87
2023/09/05 07:44:11;;;;;;;6.30;3.38;;;16.80;99.90;;;;;;5022900;28;20497;-86
2023/09/05 07:46:37;;;;;;;5.50;3.17;;;16.90;99.90;;;;;;5024041;28;20048;-86
2023/09/05 07:49:03;;;;;;;8.00;3.30;;;17.00;99.90;;;;;;5026193;28;20419;-86
2023/09/05 07:51:29;;;;;;;9.52;3.50;;;17.10;99.90;;;;;;5026322;28;20037;-86
2023/09/05 07:54:04;;;;;;;5.72;3.15;;;17.20;99.90;;;;;;5027175;28;20127;-85
2023/09/05 07:56:30;;;;;;;6.57;3.10;;;17.30;99.90;;;;;;5027155;28;20028;-86
2023/09/05 07:58:56;;;;;;;4.75;2.63;;;17.40;99.90;;;;;;5026811;28;20488;-87
2023/09/05 08:01:22;;;;;;;4.15;2.70;;;17.40;99.90;;;;;;5028398;28;20055;-85
2023/09/05 08:03:47;;;;;;;8.07;3.15;;;17.50;99.90;;;;;;5027903;28;20080;-86
2023/09/05 08:06:13;;;;;;;4.43;2.90;;;17.50;99.90;;;;;;5026649;28;20601;-85
2023/09/05 08:08:39;;;;;;;7.45;2.72;;;17.60;99.90;;;;;;5026536;28;20043;-86
2023/09/05 08:11:04;;;;;;;6.40;3.00;;;17.70;99.90;;;;;;5026113;28;20037;-85
2023/09/05 08:13:30;;;;;;;9.50;2.78;;;17.80;99.90;;;;;;5026806;28;20030;-85
2023/09/05 08:15:56;;;;;;;5.38;2.75;;;17.80;99.90;;;;;;5026445;28;20025;-85
2023/09/05 08:18:21;;;;;;;9.40;3.42;;;17.90;99.90;;;;;;5026415;28;20028;-86
2023/09/05 08:20:47;;;;;;;6.00;2.78;;;18.00;99.90;;;;;;5026335;28;20026;-85
2023/09/05 08:23:12;;;;;;;6.60;2.78;;;18.00;99.90;;;;;;5026992;28;20172;-85
2023/09/05 08:25:38;;;;;;;4.90;2.65;;;18.20;99.90;;;;;;5026464;28;21394;-86
2023/09/05 08:28:05;;;;;;;5.82;2.70;;;18.30;99.90;;;;;;5026409;28;20021;-86
2023/09/05 08:30:30;;;;;;;6.03;3.00;;;18.40;99.90;;;;;;5026314;28;20041;-85
2023/09/05 08:32:57;;;;;;;4.93;2.70;;;18.50;99.90;;;;;;5026642;28;20095;-85
2023/09/05 08:35:23;;;;;;;5.88;2.97;;;18.60;99.90;;;;;;5026220;28;20024;-85
2023/09/05 08:37:49;;;;;;;7.05;2.90;;;18.70;99.90;;;;;;5025608;28;20037;-86
2023/09/05 08:40:15;;;;;;;5.70;3.13;;;18.70;99.90;;;;;;5025891;28;20258;-85
2023/09/05 08:42:42;;;;;;;6.68;3.42;;;18.80;99.90;;;;;;5025790;28;20116;-85
2023/09/05 08:45:11;;;;;;;7.20;3.05;;;18.90;99.90;;;;;;5024960;28;20036;-85
2023/09/05 08:47:37;;;;;;;6.13;2.67;;;19.00;99.90;;;;;;5025639;28;20021;-86
2023/09/05 08:50:04;;;;;;;8.80;3.05;;;19.10;99.90;;;;;;5025593;28;20037;-86
2023/09/05 08:52:32;;;;;;;4.45;2.80;;;19.10;99.90;;;;;;5026270;28;20033;-86
2023/09/05 08:54:59;;;;;;;5.32;3.03;;;19.30;99.90;;;;;;5025590;28;20117;-85
2023/09/05 08:57:26;;;;;;;5.30;2.88;;;19.40;99.90;;;;;;5025394;28;20060;-86
2023/09/05 08:59:56;;;;;;;5.20;3.03;;;19.60;99.90;;;;;;5025199;28;20080;-86
2023/09/05 09:02:21;;;;;;;6.50;3.13;;;19.60;99.90;;;;;;5026106;28;20036;-85
2023/09/05 09:04:57;;;;;;;5.28;2.90;;;19.80;99.90;;;;;;5025227;28;20022;-86
2023/09/05 09:07:27;;;;;;;5.00;2.85;;;20.00;99.90;;;;;;5024767;28;20116;-86
2023/09/05 09:09:54;;;;;;;6.38;2.97;;;20.10;99.90;;;;;;5025321;28;20037;-85
2023/09/05 09:12:51;;;;;;;5.80;2.65;;;20.30;99.90;;;;;;5025270;28;20014;-86
2023/09/05 09:15:16;;;;;;;7.72;3.15;;;20.60;99.90;;;;;;5030515;28;20520;-87
2023/09/05 09:17:47;;;;;;;5.72;2.60;;;20.70;99.90;;;;;;5025941;28;20029;-86
2023/09/05 09:20:13;;;;;;;6.03;2.85;;;20.90;99.90;;;;;;5025309;28;20033;-86
2023/09/05 09:22:40;;;;;;;4.57;2.97;;;21.10;99.90;;;;;;5025283;28;20492;-86
2023/09/05 09:25:20;;;;;;;4.60;3.20;;;21.20;99.90;;;;;;5024940;28;20477;-85
2023/09/05 09:27:53;;;;;;;6.22;3.05;;;21.30;99.90;;;;;;5023125;28;20472;-87
2023/09/05 09:30:27;;;;;;;6.10;2.70;;;21.40;99.90;;;;;;5024147;28;20152;-86
2023/09/05 09:32:54;;;;;;;4.80;2.75;;;21.50;99.90;;;;;;5025627;28;20483;-86
2023/09/05 09:35:21;;;;;;;6.88;2.75;;;21.70;99.90;;;;;;5025183;28;20034;-86
2023/09/05 09:37:48;;;;;;;7.55;2.75;;;21.80;99.90;;;;;;5024692;28;20481;-86
2023/09/05 09:40:17;;;;;;;4.65;2.63;;;22.00;99.90;;;;;;5026110;28;20025;-86
2023/09/05 09:42:49;;;;;;;4.35;2.50;;;22.10;99.90;;;;;;5024947;28;20029;-86
2023/09/05 09:45:18;;;;;;;4.55;2.53;;;22.20;99.90;;;;;;5024632;28;21175;-86
2023/09/05 09:47:49;;;;;;;9.57;3.10;;;22.30;99.90;;;;;;5024405;28;20043;-87
2023/09/05 09:50:16;;;;;;;4.93;2.60;;;22.50;99.90;;;;;;5023688;28;20500;-85
2023/09/05 09:52:44;;;;;;;7.45;2.78;;;22.60;99.90;;;;;;5024567;28;20050;-86
2023/09/05 09:55:16;;;;;;;10.10;3.10;;;22.70;99.90;;;;;;5024606;28;20026;-87
2023/09/05 09:58:00;;;;;;;3.83;2.50;;;22.90;99.90;;;;;;5025253;28;20022;-87
2023/09/05 10:00:28;;;;;;;3.13;2.38;;;23.10;99.90;;;;;;5024856;28;20086;-87
2023/09/05 10:02:55;;;;;;;3.63;2.20;;;23.10;99.90;;;;;;5024396;28;21438;-86
2023/09/05 10:05:24;;;;;;;6.28;2.33;;;23.10;99.90;;;;;;5024319;28;20029;-85
2023/09/05 10:07:51;;;;;;;4.10;2.40;;;23.30;99.90;;;;;;5024059;28;20025;-87
2023/09/05 10:10:18;;;;;;;3.63;2.30;;;23.30;99.90;;;;;;5023235;28;20538;-86
2023/09/05 10:12:45;;;;;;;4.82;2.20;;;23.40;99.90;;;;;;5024445;28;20037;-86
2023/09/05 10:15:13;;;;;;;3.42;2.25;;;23.40;99.90;;;;;;5024186;28;20037;-87
2023/09/05 10:17:41;;;;;;;4.75;2.25;;;23.40;99.90;;;;;;5022185;28;20029;-86
2023/09/05 10:20:07;;;;;;;6.05;2.28;;;23.50;99.90;;;;;;5023191;28;20101;-86
2023/09/05 10:22:40;;;;;;;6.53;2.47;;;23.70;99.90;;;;;;5024548;28;20028;-86
2023/09/05 10:25:08;;;;;;;6.38;2.10;;;23.90;99.90;;;;;;5024112;28;20139;-86
2023/09/05 10:27:33;;;;;;;6.90;2.88;;;23.90;99.90;;;;;;5024190;28;20029;-86
2023/09/05 10:29:59;;;;;;;4.13;2.40;;;23.90;99.90;;;;;;5023932;28;20022;-87
2023/09/05 10:32:25;;;;;;;4.30;2.60;;;23.90;99.90;;;;;;5025010;28;20059;-87
2023/09/05 10:34:51;;;;;;;4.53;2.30;;;23.90;99.90;;;;;;5024089;28;20025;-86
2023/09/05 10:37:27;;;;;;;2.95;2.13;;;23.90;99.90;;;;;;5023794;28;20051;-86
2023/09/05 10:39:55;;;;;;;4.63;2.20;;;24.20;99.90;;;;;;5023674;28;21329;-86
2023/09/05 10:42:28;;;;;;;3.67;2.33;;;24.20;99.90;;;;;;5024308;28;20044;-87
2023/09/05 10:44:54;;;;;;;3.15;2.38;;;24.40;99.90;;;;;;5023655;28;20033;-86
2023/09/05 10:47:23;;;;;;;5.32;2.10;;;24.30;99.90;;;;;;5022620;28;20409;-87
2023/09/05 10:49:49;;;;;;;4.68;2.40;;;24.30;99.90;;;;;;5023566;28;20017;-87
2023/09/05 10:52:14;;;;;;;8.40;2.50;;;24.30;99.90;;;;;;5023427;28;20091;-86
2023/09/05 10:54:40;;;;;;;4.22;2.40;;;24.30;99.90;;;;;;5026490;28;20021;-87
2023/09/05 10:57:39;;;;;;;7.20;2.25;;;24.40;99.90;;;;;;5022854;28;20047;-86
2023/09/05 11:00:29;;;;;;;7.85;2.28;;;24.50;99.90;;;;;;5023026;28;20029;-86
2023/09/05 11:03:08;;;;;;;4.15;2.33;;;24.60;99.90;;;;;;5020759;28;20037;-86
2023/09/05 11:05:34;;;;;;;5.60;2.20;;;24.70;99.90;;;;;;5023681;28;20096;-86
2023/09/05 11:08:00;;;;;;;4.10;2.22;;;25.10;99.90;;;;;;5022844;28;20513;-86
2023/09/05 11:10:39;;;;;;;4.40;2.65;;;25.20;99.90;;;;;;5022477;28;20924;-86
2023/09/05 11:13:08;;;;;;;6.25;2.88;;;25.10;99.90;;;;;;5023844;28;20155;-87
2023/09/05 11:15:43;;;;;;;7.47;2.30;;;25.10;99.90;;;;;;5023268;28;20036;-86
2023/09/05 11:18:11;;;;;;;5.40;2.28;;;25.20;99.90;;;;;;5022815;28;20026;-87
2023/09/05 11:20:41;;;;;;;5.28;2.47;;;25.40;99.90;;;;;;5022851;28;20514;-86
2023/09/05 11:23:17;;;;;;;3.42;2.20;;;25.20;99.90;;;;;;5022889;28;20025;-87
2023/09/05 11:25:47;;;;;;;6.90;2.20;;;25.40;99.90;;;;;;5022823;28;20485;-88
2023/09/05 11:28:14;;;;;;;6.20;2.50;;;25.40;99.90;;;;;;5023193;28;20052;-87
2023/09/05 11:30:43;;;;;;;5.32;2.30;;;25.60;99.90;;;;;;5022707;28;20577;-88
2023/09/05 11:33:13;;;;;;;4.22;2.08;;;25.70;99.90;;;;;;5022859;28;20053;-86
2023/09/05 11:35:40;;;;;;;4.40;2.45;;;25.80;99.90;;;;;;5023012;28;20064;-86
2023/09/05 11:38:10;;;;;;;5.40;2.50;;;25.70;99.90;;;;;;5022280;28;20396;-88
2023/09/05 11:40:35;;;;;;;4.63;2.20;;;25.80;99.90;;;;;;5023084;28;20026;-87
2023/09/05 11:43:09;;;;;;;2.42;1.95;;;25.90;99.90;;;;;;5023215;28;20075;-88
2023/09/05 11:45:37;;;;;;;6.10;2.20;;;26.00;99.90;;;;;;5023052;28;20025;-88
2023/09/05 11:48:04;;;;;;;5.85;2.33;;;26.10;99.90;;;;;;5020904;28;20034;-87
2023/09/05 11:50:31;;;;;;;5.82;2.20;;;26.30;99.90;;;;;;5022728;28;20041;-87
2023/09/05 11:52:58;;;;;;;5.22;2.17;;;26.40;99.90;;;;;;5023863;28;20112;-87
2023/09/05 11:55:25;;;;;;;4.65;2.40;;;26.50;99.90;;;;;;5022748;28;20033;-87
2023/09/05 11:57:55;;;;;;;3.72;2.47;;;26.40;99.90;;;;;;5023667;28;20026;-88
2023/09/05 12:00:26;;;;;;;5.05;2.45;;;26.40;99.90;;;;;;5022760;28;20017;-88
2023/09/05 12:02:56;;;;;;;4.82;2.45;;;26.40;99.90;;;;;;5023079;28;20370;-87
2023/09/05 12:05:22;;;;;;;4.85;2.42;;;26.50;99.90;;;;;;5022511;28;20024;-88
2023/09/05 12:07:55;;;;;;;4.43;2.40;;;26.60;99.90;;;;;;5021890;28;20029;-89
2023/09/05 12:10:24;;;;;;;4.53;2.40;;;26.70;99.90;;;;;;5022801;28;20120;-87
2023/09/05 12:12:51;;;;;;;4.00;2.60;;;26.70;99.90;;;;;;5023146;28;20033;-87
2023/09/05 12:15:30;;;;;;;14.45;3.65;;;26.80;99.90;;;;;;5022875;28;20171;-86
2023/09/05 12:17:57;;;;;;;4.65;2.47;;;26.80;99.90;;;;;;5022523;28;20132;-87
2023/09/05 12:20:23;;;;;;;5.30;2.83;;;27.00;99.90;;;;;;5022728;28;20029;-87
2023/09/05 12:22:48;;;;;;;7.03;2.78;;;27.10;99.90;;;;;;5023615;28;20033;-88
2023/09/05 12:25:16;;;;;;;3.88;2.22;;;27.10;99.90;;;;;;5022673;28;20116;-88
2023/09/05 12:27:43;;;;;;;3.85;2.40;;;27.20;99.90;;;;;;5017274;28;20029;-86
2023/09/05 12:30:25;;;;;;;5.93;2.63;;;27.00;99.90;;;;;;5018660;28;20090;-87
2023/09/05 12:32:54;;;;;;;3.33;2.55;;;27.00;99.90;;;;;;5020276;28;20072;-88
2023/09/05 12:35:20;;;;;;;4.78;2.65;;;26.90;99.90;;;;;;5022311;28;20033;-86
2023/09/05 12:37:45;;;;;;;6.88;2.50;;;26.90;99.90;;;;;;5022047;28;20076;-87
2023/09/05 12:40:11;;;;;;;5.43;1.88;;;26.80;99.90;;;;;;5022460;28;21761;-89
2023/09/05 12:42:37;;;;;;;3.67;2.63;;;26.70;99.90;;;;;;5021917;28;20021;-88
2023/09/05 12:45:02;;;;;;;4.88;2.70;;;26.50;99.90;;;;;;5022267;28;20133;-87